sensor_id;sensor_type;location;lat;lon;timestamp;temperature;humidity
25582;DHT22;13462;50.764;4.332;2023-06-22T00:01:19;20.50;99.90
25582;DHT22;13462;50.764;4.332;2023-06-22T00:04:01;20.60;99.90
25582;DHT22;13462;50.764;4.332;2023-06-22T00:06:27;20.50;99.90
25582;DHT22;13462;50.764;4.332;2023-06-22T00:08:53;20.40;99.90
25582;DHT22;13462;50.764;4.332;2023-06-22T00:11:19;20.30;99.90
25582;DHT22;13462;50.764;4.332;2023-06-22T00:13:45;20.30;99.90
25582;DHT22;13462;50.764;4.332;2023-06-22T00:16:12;20.30;99.90
25582;DHT22;13462;50.764;4.332;2023-06-22T00:18:38;20.30;99.90
25582;DHT22;13462;50.764;4.332;2023-06-22T00:21:04;20.30;99.90
25582;DHT22;13462;50.764;4.332;2023-06-22T00:23:31;20.30;99.90
25582;DHT22;13462;50.764;4.332;2023-06-22T00:25:59;20.20;99.90
25582;DHT22;13462;50.764;4.332;2023-06-22T00:28:25;20.30;99.90
25582;DHT22;13462;50.764;4.332;2023-06-22T00:30:51;20.20;99.90
25582;DHT22;13462;50.764;4.332;2023-06-22T00:33:17;20.10;99.90
25582;DHT22;13462;50.764;4.332;2023-06-22T00:35:42;20.10;99.90
25582;DHT22;13462;50.764;4.332;2023-06-22T00:38:09;20.10;99.90
25582;DHT22;13462;50.764;4.332;2023-06-22T00:40:34;20.00;99.90
25582;DHT22;13462;50.764;4.332;2023-06-22T00:43:00;20.10;99.90
25582;DHT22;13462;50.764;4.332;2023-06-22T00:45:27;20.10;99.90
25582;DHT22;13462;50.764;4.332;2023-06-22T00:47:53;20.20;99.90
25582;DHT22;13462;50.764;4.332;2023-06-22T00:50:22;20.20;99.90
25582;DHT22;13462;50.764;4.332;2023-06-22T00:52:52;20.10;99.90
25582;DHT22;13462;50.764;4.332;2023-06-22T00:55:22;20.20;99.90
25582;DHT22;13462;50.764;4.332;2023-06-22T00:57:48;20.10;99.90
25582;DHT22;13462;50.764;4.332;2023-06-22T01:00:15;20.20;99.90
25582;DHT22;13462;50.764;4.332;2023-06-22T01:02:43;20.20;99.90
25582;DHT22;13462;50.764;4.332;2023-06-22T01:05:13;20.20;99.90
25582;DHT22;13462;50.764;4.332;2023-06-22T01:07:48;20.20;99.90
25582;DHT22;13462;50.764;4.332;2023-06-22T01:13:18;20.30;99.90
25582;DHT22;13462;50.764;4.332;2023-06-22T01:15:57;20.30;99.90
25582;DHT22;13462;50.764;4.332;2023-06-22T01:18:28;20.30;99.90
25582;DHT22;13462;50.764;4.332;2023-06-22T01:20:58;20.30;99.90
25582;DHT22;13462;50.764;4.332;2023-06-22T01:26:12;20.30;99.90
25582;DHT22;13462;50.764;4.332;2023-06-22T01:31:09;20.10;99.90
25582;DHT22;13462;50.764;4.332;2023-06-22T01:33:39;20.10;99.90
25582;DHT22;13462;50.764;4.332;2023-06-22T01:36:10;20.10;99.90
25582;DHT22;13462;50.764;4.332;2023-06-22T01:38:38;20.00;99.90
25582;DHT22;13462;50.764;4.332;2023-06-22T01:41:05;20.00;99.90
25582;DHT22;13462;50.764;4.332;2023-06-22T01:43:32;20.00;99.90
25582;DHT22;13462;50.764;4.332;2023-06-22T01:46:18;19.90;99.90
25582;DHT22;13462;50.764;4.332;2023-06-22T01:48:45;19.80;99.90
25582;DHT22;13462;50.764;4.332;2023-06-22T01:51:12;19.70;99.90
25582;DHT22;13462;50.764;4.332;2023-06-22T01:53:37;19.80;99.90
25582;DHT22;13462;50.764;4.332;2023-06-22T01:56:03;19.70;99.90
25582;DHT22;13462;50.764;4.332;2023-06-22T01:58:30;19.70;99.90
25582;DHT22;13462;50.764;4.332;2023-06-22T02:01:10;19.70;99.90
25582;DHT22;13462;50.764;4.332;2023-06-22T02:03:41;19.60;99.90
25582;DHT22;13462;50.764;4.332;2023-06-22T02:06:14;19.70;99.90
25582;DHT22;13462;50.764;4.332;2023-06-22T02:08:46;19.60;99.90
25582;DHT22;13462;50.764;4.332;2023-06-22T02:11:13;19.50;99.90
25582;DHT22;13462;50.764;4.332;2023-06-22T02:13:40;19.50;99.90
25582;DHT22;13462;50.764;4.332;2023-06-22T02:16:10;19.50;99.90
25582;DHT22;13462;50.764;4.332;2023-06-22T02:18:36;19.40;99.90
25582;DHT22;13462;50.764;4.332;2023-06-22T02:21:02;19.40;99.90
25582;DHT22;13462;50.764;4.332;2023-06-22T02:23:28;19.50;99.90
25582;DHT22;13462;50.764;4.332;2023-06-22T02:25:54;19.40;99.90
25582;DHT22;13462;50.764;4.332;2023-06-22T02:28:20;19.40;99.90
25582;DHT22;13462;50.764;4.332;2023-06-22T02:30:45;19.40;99.90
25582;DHT22;13462;50.764;4.332;2023-06-22T02:33:11;19.50;99.90
25582;DHT22;13462;50.764;4.332;2023-06-22T02:35:37;19.40;99.90
25582;DHT22;13462;50.764;4.332;2023-06-22T02:38:04;19.30;99.90
25582;DHT22;13462;50.764;4.332;2023-06-22T02:40:30;19.30;99.90
25582;DHT22;13462;50.764;4.332;2023-06-22T02:42:56;19.20;99.90
25582;DHT22;13462;50.764;4.332;2023-06-22T02:45:23;19.20;99.90
25582;DHT22;13462;50.764;4.332;2023-06-22T02:47:49;19.20;99.90
25582;DHT22;13462;50.764;4.332;2023-06-22T02:50:15;19.10;99.90
25582;DHT22;13462;50.764;4.332;2023-06-22T02:52:40;19.10;99.90
25582;DHT22;13462;50.764;4.332;2023-06-22T02:55:07;19.10;99.90
25582;DHT22;13462;50.764;4.332;2023-06-22T02:57:35;19.10;99.90
25582;DHT22;13462;50.764;4.332;2023-06-22T03:00:03;19.00;99.90
25582;DHT22;13462;50.764;4.332;2023-06-22T03:02:39;19.00;99.90
25582;DHT22;13462;50.764;4.332;2023-06-22T03:05:05;19.00;99.90
25582;DHT22;13462;50.764;4.332;2023-06-22T03:07:31;19.00;99.90
25582;DHT22;13462;50.764;4.332;2023-06-22T03:09:57;19.00;99.90
25582;DHT22;13462;50.764;4.332;2023-06-22T03:12:22;19.00;99.90
25582;DHT22;13462;50.764;4.332;2023-06-22T03:14:48;18.90;99.90
25582;DHT22;13462;50.764;4.332;2023-06-22T03:17:14;18.90;99.90
25582;DHT22;13462;50.764;4.332;2023-06-22T03:19:40;19.00;99.90
25582;DHT22;13462;50.764;4.332;2023-06-22T03:22:05;18.90;99.90
25582;DHT22;13462;50.764;4.332;2023-06-22T03:24:32;18.90;99.90
25582;DHT22;13462;50.764;4.332;2023-06-22T03:26:59;19.00;99.90
25582;DHT22;13462;50.764;4.332;2023-06-22T03:29:25;18.90;99.90
25582;DHT22;13462;50.764;4.332;2023-06-22T03:31:51;19.00;99.90
25582;DHT22;13462;50.764;4.332;2023-06-22T03:34:17;19.00;99.90
25582;DHT22;13462;50.764;4.332;2023-06-22T03:36:51;19.00;99.90
25582;DHT22;13462;50.764;4.332;2023-06-22T03:39:17;19.10;99.90
25582;DHT22;13462;50.764;4.332;2023-06-22T03:41:43;19.10;99.90
25582;DHT22;13462;50.764;4.332;2023-06-22T03:44:09;19.10;99.90
25582;DHT22;13462;50.764;4.332;2023-06-22T03:46:37;19.10;99.90
25582;DHT22;13462;50.764;4.332;2023-06-22T03:49:03;19.10;99.90
25582;DHT22;13462;50.764;4.332;2023-06-22T03:51:30;19.20;99.90
25582;DHT22;13462;50.764;4.332;2023-06-22T03:53:56;19.30;99.90
25582;DHT22;13462;50.764;4.332;2023-06-22T03:56:21;19.50;99.90
25582;DHT22;13462;50.764;4.332;2023-06-22T03:58:47;19.60;99.90
25582;DHT22;13462;50.764;4.332;2023-06-22T04:01:13;19.60;99.90
25582;DHT22;13462;50.764;4.332;2023-06-22T04:03:39;19.80;99.90
25582;DHT22;13462;50.764;4.332;2023-06-22T04:06:05;19.70;99.90
25582;DHT22;13462;50.764;4.332;2023-06-22T04:08:30;19.70;99.90
25582;DHT22;13462;50.764;4.332;2023-06-22T04:10:56;19.60;99.90
25582;DHT22;13462;50.764;4.332;2023-06-22T04:13:22;19.60;99.90
25582;DHT22;13462;50.764;4.332;2023-06-22T04:15:47;19.50;99.90
25582;DHT22;13462;50.764;4.332;2023-06-22T04:18:13;19.50;99.90
25582;DHT22;13462;50.764;4.332;2023-06-22T04:20:39;19.50;99.90
25582;DHT22;13462;50.764;4.332;2023-06-22T04:23:05;19.50;99.90
25582;DHT22;13462;50.764;4.332;2023-06-22T04:25:30;19.60;99.90
25582;DHT22;13462;50.764;4.332;2023-06-22T04:27:56;19.70;99.90
25582;DHT22;13462;50.764;4.332;2023-06-22T04:30:22;19.70;99.90
25582;DHT22;13462;50.764;4.332;2023-06-22T04:32:47;19.50;99.90
25582;DHT22;13462;50.764;4.332;2023-06-22T04:35:21;19.50;99.90
25582;DHT22;13462;50.764;4.332;2023-06-22T04:37:48;19.40;99.90
25582;DHT22;13462;50.764;4.332;2023-06-22T04:40:15;19.40;99.90
25582;DHT22;13462;50.764;4.332;2023-06-22T04:42:41;19.30;99.90
25582;DHT22;13462;50.764;4.332;2023-06-22T04:45:17;19.30;99.90
25582;DHT22;13462;50.764;4.332;2023-06-22T04:47:43;19.40;99.90
25582;DHT22;13462;50.764;4.332;2023-06-22T04:50:14;19.40;99.90
25582;DHT22;13462;50.764;4.332;2023-06-22T04:52:39;19.40;99.90
25582;DHT22;13462;50.764;4.332;2023-06-22T04:55:06;19.30;99.90
25582;DHT22;13462;50.764;4.332;2023-06-22T04:57:31;19.30;99.90
25582;DHT22;13462;50.764;4.332;2023-06-22T05:00:00;19.30;99.90
25582;DHT22;13462;50.764;4.332;2023-06-22T05:02:52;19.20;99.90
25582;DHT22;13462;50.764;4.332;2023-06-22T05:05:18;19.20;99.90
25582;DHT22;13462;50.764;4.332;2023-06-22T05:07:46;19.20;99.90
25582;DHT22;13462;50.764;4.332;2023-06-22T05:10:14;19.20;99.90
25582;DHT22;13462;50.764;4.332;2023-06-22T05:12:40;19.20;99.90
25582;DHT22;13462;50.764;4.332;2023-06-22T05:15:07;19.10;99.90
25582;DHT22;13462;50.764;4.332;2023-06-22T05:17:34;19.10;99.90
25582;DHT22;13462;50.764;4.332;2023-06-22T05:19:59;19.00;99.90
25582;DHT22;13462;50.764;4.332;2023-06-22T05:22:25;19.00;99.90
25582;DHT22;13462;50.764;4.332;2023-06-22T05:24:51;19.00;99.90
25582;DHT22;13462;50.764;4.332;2023-06-22T05:27:16;19.00;99.90
25582;DHT22;13462;50.764;4.332;2023-06-22T05:29:42;18.90;99.90
25582;DHT22;13462;50.764;4.332;2023-06-22T05:32:08;18.80;99.90
25582;DHT22;13462;50.764;4.332;2023-06-22T05:34:33;18.80;99.90
25582;DHT22;13462;50.764;4.332;2023-06-22T05:36:59;18.80;99.90
25582;DHT22;13462;50.764;4.332;2023-06-22T05:39:25;18.70;99.90
25582;DHT22;13462;50.764;4.332;2023-06-22T05:41:51;18.80;99.90
25582;DHT22;13462;50.764;4.332;2023-06-22T05:44:17;18.80;99.90
25582;DHT22;13462;50.764;4.332;2023-06-22T05:46:43;18.80;99.90
25582;DHT22;13462;50.764;4.332;2023-06-22T05:49:11;18.80;99.90
25582;DHT22;13462;50.764;4.332;2023-06-22T05:51:37;18.80;99.90
25582;DHT22;13462;50.764;4.332;2023-06-22T05:54:02;18.80;99.90
25582;DHT22;13462;50.764;4.332;2023-06-22T05:56:28;18.80;99.90
25582;DHT22;13462;50.764;4.332;2023-06-22T05:58:53;18.90;99.90
25582;DHT22;13462;50.764;4.332;2023-06-22T06:01:19;18.90;99.90
25582;DHT22;13462;50.764;4.332;2023-06-22T06:03:45;18.90;99.90
25582;DHT22;13462;50.764;4.332;2023-06-22T06:06:11;18.90;99.90
25582;DHT22;13462;50.764;4.332;2023-06-22T06:08:38;19.10;99.90
25582;DHT22;13462;50.764;4.332;2023-06-22T06:11:03;19.30;99.90
25582;DHT22;13462;50.764;4.332;2023-06-22T06:13:29;19.30;99.90
25582;DHT22;13462;50.764;4.332;2023-06-22T06:15:55;19.50;99.90
25582;DHT22;13462;50.764;4.332;2023-06-22T06:18:21;19.60;99.90
25582;DHT22;13462;50.764;4.332;2023-06-22T06:20:47;19.80;99.90
25582;DHT22;13462;50.764;4.332;2023-06-22T06:23:12;19.90;99.90
25582;DHT22;13462;50.764;4.332;2023-06-22T06:25:38;20.10;99.90
25582;DHT22;13462;50.764;4.332;2023-06-22T06:28:03;20.20;99.90
25582;DHT22;13462;50.764;4.332;2023-06-22T06:30:30;20.40;99.90
25582;DHT22;13462;50.764;4.332;2023-06-22T06:32:55;20.50;99.90
25582;DHT22;13462;50.764;4.332;2023-06-22T06:35:21;20.60;99.90
25582;DHT22;13462;50.764;4.332;2023-06-22T06:37:49;20.80;99.90
25582;DHT22;13462;50.764;4.332;2023-06-22T06:40:16;20.90;99.90
25582;DHT22;13462;50.764;4.332;2023-06-22T06:42:48;21.00;99.90
25582;DHT22;13462;50.764;4.332;2023-06-22T06:45:21;20.90;99.90
25582;DHT22;13462;50.764;4.332;2023-06-22T06:47:51;21.00;99.90
25582;DHT22;13462;50.764;4.332;2023-06-22T06:50:18;21.10;99.90
25582;DHT22;13462;50.764;4.332;2023-06-22T06:52:44;21.10;99.90
25582;DHT22;13462;50.764;4.332;2023-06-22T06:55:29;21.20;99.90
25582;DHT22;13462;50.764;4.332;2023-06-22T06:57:58;21.30;99.90
25582;DHT22;13462;50.764;4.332;2023-06-22T07:00:25;21.40;99.90
25582;DHT22;13462;50.764;4.332;2023-06-22T07:02:55;21.40;99.90
25582;DHT22;13462;50.764;4.332;2023-06-22T07:05:21;21.50;99.90
25582;DHT22;13462;50.764;4.332;2023-06-22T07:07:47;21.40;99.90
25582;DHT22;13462;50.764;4.332;2023-06-22T07:10:12;21.50;99.90
25582;DHT22;13462;50.764;4.332;2023-06-22T07:12:38;21.60;99.90
25582;DHT22;13462;50.764;4.332;2023-06-22T07:15:08;21.70;99.90
25582;DHT22;13462;50.764;4.332;2023-06-22T07:17:43;21.80;99.90
25582;DHT22;13462;50.764;4.332;2023-06-22T07:20:09;21.90;99.90
25582;DHT22;13462;50.764;4.332;2023-06-22T07:22:37;22.10;99.90
25582;DHT22;13462;50.764;4.332;2023-06-22T07:25:06;22.30;99.90
25582;DHT22;13462;50.764;4.332;2023-06-22T07:30:28;22.20;99.90
25582;DHT22;13462;50.764;4.332;2023-06-22T07:32:54;22.00;99.90
25582;DHT22;13462;50.764;4.332;2023-06-22T07:35:20;22.00;99.90
25582;DHT22;13462;50.764;4.332;2023-06-22T07:37:46;22.00;99.90
25582;DHT22;13462;50.764;4.332;2023-06-22T07:40:12;22.00;99.90
25582;DHT22;13462;50.764;4.332;2023-06-22T07:42:57;22.00;99.90
25582;DHT22;13462;50.764;4.332;2023-06-22T07:45:22;21.90;99.90
25582;DHT22;13462;50.764;4.332;2023-06-22T07:47:48;21.90;99.90
25582;DHT22;13462;50.764;4.332;2023-06-22T07:50:39;21.80;99.90
25582;DHT22;13462;50.764;4.332;2023-06-22T07:53:05;21.80;99.90
25582;DHT22;13462;50.764;4.332;2023-06-22T07:55:31;21.80;99.90
25582;DHT22;13462;50.764;4.332;2023-06-22T07:57:59;21.70;99.90
25582;DHT22;13462;50.764;4.332;2023-06-22T08:00:24;21.50;99.90
25582;DHT22;13462;50.764;4.332;2023-06-22T08:02:50;21.40;99.90
25582;DHT22;13462;50.764;4.332;2023-06-22T08:05:16;21.40;99.90
25582;DHT22;13462;50.764;4.332;2023-06-22T08:07:42;21.50;99.90
25582;DHT22;13462;50.764;4.332;2023-06-22T08:10:11;21.40;99.90
25582;DHT22;13462;50.764;4.332;2023-06-22T08:12:37;21.40;99.90
25582;DHT22;13462;50.764;4.332;2023-06-22T08:15:03;21.40;99.90
25582;DHT22;13462;50.764;4.332;2023-06-22T08:17:29;21.40;99.90
25582;DHT22;13462;50.764;4.332;2023-06-22T08:19:54;21.50;99.90
25582;DHT22;13462;50.764;4.332;2023-06-22T08:22:20;21.50;99.90
25582;DHT22;13462;50.764;4.332;2023-06-22T08:24:46;21.50;99.90
25582;DHT22;13462;50.764;4.332;2023-06-22T08:27:14;21.50;99.90
25582;DHT22;13462;50.764;4.332;2023-06-22T08:29:46;21.50;99.90
25582;DHT22;13462;50.764;4.332;2023-06-22T08:32:12;21.40;99.90
25582;DHT22;13462;50.764;4.332;2023-06-22T08:34:38;21.40;99.90
25582;DHT22;13462;50.764;4.332;2023-06-22T08:37:08;21.30;99.90
25582;DHT22;13462;50.764;4.332;2023-06-22T08:39:33;21.30;99.90
25582;DHT22;13462;50.764;4.332;2023-06-22T08:41:59;21.30;99.90
25582;DHT22;13462;50.764;4.332;2023-06-22T08:44:27;21.30;99.90
25582;DHT22;13462;50.764;4.332;2023-06-22T08:46:53;21.30;99.90
25582;DHT22;13462;50.764;4.332;2023-06-22T08:49:19;21.20;99.90
25582;DHT22;13462;50.764;4.332;2023-06-22T08:51:44;21.20;99.90
25582;DHT22;13462;50.764;4.332;2023-06-22T08:54:13;21.10;99.90
25582;DHT22;13462;50.764;4.332;2023-06-22T08:56:39;21.10;99.90
25582;DHT22;13462;50.764;4.332;2023-06-22T08:59:04;21.20;99.90
25582;DHT22;13462;50.764;4.332;2023-06-22T09:01:33;21.20;99.90
25582;DHT22;13462;50.764;4.332;2023-06-22T09:03:58;21.10;99.90
25582;DHT22;13462;50.764;4.332;2023-06-22T09:06:25;21.10;99.90
25582;DHT22;13462;50.764;4.332;2023-06-22T09:08:51;21.10;99.90
25582;DHT22;13462;50.764;4.332;2023-06-22T09:11:16;21.20;99.90
25582;DHT22;13462;50.764;4.332;2023-06-22T09:27:00;21.10;99.90
25582;DHT22;13462;50.764;4.332;2023-06-22T09:29:26;21.50;99.90
25582;DHT22;13462;50.764;4.332;2023-06-22T09:31:51;21.50;99.90
25582;DHT22;13462;50.764;4.332;2023-06-22T09:34:19;21.30;99.90
25582;DHT22;13462;50.764;4.332;2023-06-22T09:36:46;21.20;99.90
25582;DHT22;13462;50.764;4.332;2023-06-22T09:39:11;21.10;99.90
25582;DHT22;13462;50.764;4.332;2023-06-22T09:41:37;20.80;99.90
25582;DHT22;13462;50.764;4.332;2023-06-22T09:44:02;20.70;99.90
25582;DHT22;13462;50.764;4.332;2023-06-22T09:46:28;20.70;99.90
25582;DHT22;13462;50.764;4.332;2023-06-22T09:48:54;20.70;99.90
25582;DHT22;13462;50.764;4.332;2023-06-22T09:51:20;20.60;99.90
25582;DHT22;13462;50.764;4.332;2023-06-22T09:53:47;20.60;99.90
25582;DHT22;13462;50.764;4.332;2023-06-22T09:56:13;20.50;99.90
25582;DHT22;13462;50.764;4.332;2023-06-22T09:58:43;20.30;99.90
25582;DHT22;13462;50.764;4.332;2023-06-22T10:01:10;20.10;99.90
25582;DHT22;13462;50.764;4.332;2023-06-22T10:03:36;19.90;99.90
25582;DHT22;13462;50.764;4.332;2023-06-22T10:06:02;19.90;99.90
25582;DHT22;13462;50.764;4.332;2023-06-22T10:08:27;19.70;99.90
25582;DHT22;13462;50.764;4.332;2023-06-22T10:10:53;19.70;99.90
25582;DHT22;13462;50.764;4.332;2023-06-22T10:13:18;19.70;99.90
25582;DHT22;13462;50.764;4.332;2023-06-22T10:15:44;19.70;99.90
25582;DHT22;13462;50.764;4.332;2023-06-22T10:18:16;19.70;99.90
25582;DHT22;13462;50.764;4.332;2023-06-22T10:20:42;19.60;99.90
25582;DHT22;13462;50.764;4.332;2023-06-22T10:23:08;19.30;99.90
25582;DHT22;13462;50.764;4.332;2023-06-22T10:25:34;19.40;99.90
25582;DHT22;13462;50.764;4.332;2023-06-22T10:27:59;19.40;99.90
25582;DHT22;13462;50.764;4.332;2023-06-22T10:30:25;19.50;99.90
25582;DHT22;13462;50.764;4.332;2023-06-22T10:32:51;19.40;99.90
25582;DHT22;13462;50.764;4.332;2023-06-22T10:35:16;19.40;99.90
25582;DHT22;13462;50.764;4.332;2023-06-22T10:37:43;19.50;99.90
25582;DHT22;13462;50.764;4.332;2023-06-22T10:40:10;19.60;99.90
25582;DHT22;13462;50.764;4.332;2023-06-22T10:42:36;19.60;99.90
25582;DHT22;13462;50.764;4.332;2023-06-22T10:45:01;19.70;99.90
25582;DHT22;13462;50.764;4.332;2023-06-22T10:47:28;19.80;99.90
25582;DHT22;13462;50.764;4.332;2023-06-22T10:49:53;19.70;99.90
25582;DHT22;13462;50.764;4.332;2023-06-22T10:52:19;19.90;99.90
25582;DHT22;13462;50.764;4.332;2023-06-22T10:54:47;19.80;99.90
25582;DHT22;13462;50.764;4.332;2023-06-22T10:57:13;19.70;99.90
25582;DHT22;13462;50.764;4.332;2023-06-22T10:59:39;19.80;99.90
25582;DHT22;13462;50.764;4.332;2023-06-22T11:02:05;19.90;99.90
25582;DHT22;13462;50.764;4.332;2023-06-22T11:04:31;19.90;99.90
25582;DHT22;13462;50.764;4.332;2023-06-22T11:06:56;20.10;99.90
25582;DHT22;13462;50.764;4.332;2023-06-22T11:09:22;20.20;99.90
25582;DHT22;13462;50.764;4.332;2023-06-22T11:11:49;20.30;99.90
25582;DHT22;13462;50.764;4.332;2023-06-22T11:14:15;20.20;99.90
25582;DHT22;13462;50.764;4.332;2023-06-22T11:16:41;20.20;99.90
25582;DHT22;13462;50.764;4.332;2023-06-22T11:19:06;20.20;99.90
25582;DHT22;13462;50.764;4.332;2023-06-22T11:21:32;20.20;99.90
25582;DHT22;13462;50.764;4.332;2023-06-22T11:23:58;20.10;99.90
25582;DHT22;13462;50.764;4.332;2023-06-22T11:26:24;20.10;99.90
25582;DHT22;13462;50.764;4.332;2023-06-22T11:28:52;20.00;99.90
25582;DHT22;13462;50.764;4.332;2023-06-22T11:31:18;20.10;99.90
25582;DHT22;13462;50.764;4.332;2023-06-22T11:33:44;19.80;99.90
25582;DHT22;13462;50.764;4.332;2023-06-22T11:36:11;19.90;99.90
25582;DHT22;13462;50.764;4.332;2023-06-22T11:38:40;20.10;99.90
25582;DHT22;13462;50.764;4.332;2023-06-22T11:41:06;20.00;99.90
25582;DHT22;13462;50.764;4.332;2023-06-22T11:43:33;20.00;99.90
25582;DHT22;13462;50.764;4.332;2023-06-22T11:45:59;20.00;99.90
25582;DHT22;13462;50.764;4.332;2023-06-22T11:48:25;20.10;99.90
25582;DHT22;13462;50.764;4.332;2023-06-22T11:50:51;20.10;99.90
25582;DHT22;13462;50.764;4.332;2023-06-22T11:53:16;20.00;99.90
25582;DHT22;13462;50.764;4.332;2023-06-22T11:55:43;20.00;99.90
25582;DHT22;13462;50.764;4.332;2023-06-22T11:58:09;20.00;99.90
25582;DHT22;13462;50.764;4.332;2023-06-22T12:00:34;20.00;99.90
25582;DHT22;13462;50.764;4.332;2023-06-22T12:03:00;20.00;99.90
25582;DHT22;13462;50.764;4.332;2023-06-22T12:05:25;19.90;99.90
25582;DHT22;13462;50.764;4.332;2023-06-22T12:07:53;19.80;99.90
25582;DHT22;13462;50.764;4.332;2023-06-22T12:10:19;19.80;99.90
25582;DHT22;13462;50.764;4.332;2023-06-22T12:12:45;19.70;99.90
25582;DHT22;13462;50.764;4.332;2023-06-22T12:15:11;19.70;99.90
25582;DHT22;13462;50.764;4.332;2023-06-22T12:17:36;19.60;99.90
25582;DHT22;13462;50.764;4.332;2023-06-22T12:20:02;19.40;99.90
25582;DHT22;13462;50.764;4.332;2023-06-22T12:22:32;19.30;99.90
25582;DHT22;13462;50.764;4.332;2023-06-22T12:24:57;19.20;99.90
25582;DHT22;13462;50.764;4.332;2023-06-22T12:27:25;19.20;99.90
25582;DHT22;13462;50.764;4.332;2023-06-22T12:29:51;19.20;99.90
25582;DHT22;13462;50.764;4.332;2023-06-22T12:32:16;19.10;99.90
25582;DHT22;13462;50.764;4.332;2023-06-22T12:34:43;19.10;99.90
25582;DHT22;13462;50.764;4.332;2023-06-22T12:37:09;19.10;99.90
25582;DHT22;13462;50.764;4.332;2023-06-22T12:39:34;19.10;99.90
25582;DHT22;13462;50.764;4.332;2023-06-22T12:42:00;19.10;99.90
25582;DHT22;13462;50.764;4.332;2023-06-22T12:44:26;19.10;99.90
25582;DHT22;13462;50.764;4.332;2023-06-22T12:46:51;19.10;99.90
25582;DHT22;13462;50.764;4.332;2023-06-22T12:49:17;19.10;99.90
25582;DHT22;13462;50.764;4.332;2023-06-22T12:51:43;19.10;99.90
25582;DHT22;13462;50.764;4.332;2023-06-22T12:54:10;19.10;99.90
25582;DHT22;13462;50.764;4.332;2023-06-22T12:56:37;19.10;99.90
25582;DHT22;13462;50.764;4.332;2023-06-22T12:59:04;19.10;99.90
25582;DHT22;13462;50.764;4.332;2023-06-22T13:01:30;19.10;99.90
25582;DHT22;13462;50.764;4.332;2023-06-22T13:03:56;19.00;99.90
25582;DHT22;13462;50.764;4.332;2023-06-22T13:06:21;19.00;99.90
25582;DHT22;13462;50.764;4.332;2023-06-22T13:08:47;19.00;99.90
25582;DHT22;13462;50.764;4.332;2023-06-22T13:11:13;18.90;99.90
25582;DHT22;13462;50.764;4.332;2023-06-22T13:13:39;18.90;99.90
25582;DHT22;13462;50.764;4.332;2023-06-22T13:16:05;18.90;99.90
25582;DHT22;13462;50.764;4.332;2023-06-22T13:18:31;18.90;99.90
25582;DHT22;13462;50.764;4.332;2023-06-22T13:20:57;18.90;99.90
25582;DHT22;13462;50.764;4.332;2023-06-22T13:23:23;18.90;99.90
25582;DHT22;13462;50.764;4.332;2023-06-22T13:25:49;19.00;99.90
25582;DHT22;13462;50.764;4.332;2023-06-22T13:28:14;19.00;99.90
25582;DHT22;13462;50.764;4.332;2023-06-22T13:30:41;19.10;99.90
25582;DHT22;13462;50.764;4.332;2023-06-22T13:33:08;19.10;99.90
25582;DHT22;13462;50.764;4.332;2023-06-22T13:35:34;19.10;99.90
25582;DHT22;13462;50.764;4.332;2023-06-22T13:38:00;19.10;99.90
25582;DHT22;13462;50.764;4.332;2023-06-22T13:40:26;19.10;99.90
25582;DHT22;13462;50.764;4.332;2023-06-22T13:42:52;19.20;99.90
25582;DHT22;13462;50.764;4.332;2023-06-22T13:45:17;19.10;99.90
25582;DHT22;13462;50.764;4.332;2023-06-22T13:47:44;19.10;99.90
25582;DHT22;13462;50.764;4.332;2023-06-22T13:50:10;19.10;99.90
25582;DHT22;13462;50.764;4.332;2023-06-22T13:52:38;19.00;99.90
25582;DHT22;13462;50.764;4.332;2023-06-22T13:55:04;19.00;99.90
25582;DHT22;13462;50.764;4.332;2023-06-22T13:57:31;19.00;99.90
25582;DHT22;13462;50.764;4.332;2023-06-22T13:59:56;18.90;99.90
25582;DHT22;13462;50.764;4.332;2023-06-22T14:02:22;18.90;99.90
25582;DHT22;13462;50.764;4.332;2023-06-22T14:04:47;19.00;99.90
25582;DHT22;13462;50.764;4.332;2023-06-22T14:07:13;19.00;99.90
25582;DHT22;13462;50.764;4.332;2023-06-22T14:09:38;19.00;99.90
25582;DHT22;13462;50.764;4.332;2023-06-22T14:12:05;19.10;99.90
25582;DHT22;13462;50.764;4.332;2023-06-22T14:14:32;19.00;99.90
25582;DHT22;13462;50.764;4.332;2023-06-22T14:16:58;19.10;99.90
25582;DHT22;13462;50.764;4.332;2023-06-22T14:19:24;19.10;99.90
25582;DHT22;13462;50.764;4.332;2023-06-22T14:21:49;19.10;99.90
25582;DHT22;13462;50.764;4.332;2023-06-22T14:24:15;19.10;99.90
25582;DHT22;13462;50.764;4.332;2023-06-22T14:26:41;19.10;99.90
25582;DHT22;13462;50.764;4.332;2023-06-22T14:29:06;19.10;99.90
25582;DHT22;13462;50.764;4.332;2023-06-22T14:31:32;19.20;99.90
25582;DHT22;13462;50.764;4.332;2023-06-22T14:33:58;19.20;99.90
25582;DHT22;13462;50.764;4.332;2023-06-22T14:36:23;19.20;99.90
25582;DHT22;13462;50.764;4.332;2023-06-22T14:38:49;19.30;99.90
25582;DHT22;13462;50.764;4.332;2023-06-22T14:41:14;19.30;99.90
25582;DHT22;13462;50.764;4.332;2023-06-22T14:43:47;19.40;99.90
25582;DHT22;13462;50.764;4.332;2023-06-22T14:46:14;19.40;99.90
25582;DHT22;13462;50.764;4.332;2023-06-22T14:48:40;19.40;99.90
25582;DHT22;13462;50.764;4.332;2023-06-22T14:51:06;19.30;99.90
25582;DHT22;13462;50.764;4.332;2023-06-22T14:53:31;19.20;99.90
25582;DHT22;13462;50.764;4.332;2023-06-22T14:55:57;19.20;99.90
25582;DHT22;13462;50.764;4.332;2023-06-22T14:58:22;19.20;99.90
25582;DHT22;13462;50.764;4.332;2023-06-22T15:00:48;19.20;99.90
25582;DHT22;13462;50.764;4.332;2023-06-22T15:03:15;19.30;99.90
25582;DHT22;13462;50.764;4.332;2023-06-22T15:05:46;19.30;99.90
25582;DHT22;13462;50.764;4.332;2023-06-22T15:08:12;19.30;99.90
25582;DHT22;13462;50.764;4.332;2023-06-22T15:10:37;19.30;99.90
25582;DHT22;13462;50.764;4.332;2023-06-22T15:13:03;19.30;99.90
25582;DHT22;13462;50.764;4.332;2023-06-22T15:15:28;19.30;99.90
25582;DHT22;13462;50.764;4.332;2023-06-22T15:17:54;19.40;99.90
25582;DHT22;13462;50.764;4.332;2023-06-22T15:20:19;19.40;99.90
25582;DHT22;13462;50.764;4.332;2023-06-22T15:22:45;19.40;99.90
25582;DHT22;13462;50.764;4.332;2023-06-22T15:25:10;19.40;99.90
25582;DHT22;13462;50.764;4.332;2023-06-22T15:27:36;19.40;99.90
25582;DHT22;13462;50.764;4.332;2023-06-22T15:30:02;19.40;99.90
25582;DHT22;13462;50.764;4.332;2023-06-22T15:32:29;19.50;99.90
25582;DHT22;13462;50.764;4.332;2023-06-22T15:34:55;19.70;99.90
25582;DHT22;13462;50.764;4.332;2023-06-22T15:37:20;19.70;99.90
25582;DHT22;13462;50.764;4.332;2023-06-22T15:39:46;19.80;99.90
25582;DHT22;13462;50.764;4.332;2023-06-22T15:42:12;19.80;99.90
25582;DHT22;13462;50.764;4.332;2023-06-22T15:44:38;19.80;99.90
25582;DHT22;13462;50.764;4.332;2023-06-22T15:47:04;19.80;99.90
25582;DHT22;13462;50.764;4.332;2023-06-22T15:49:29;19.90;99.90
25582;DHT22;13462;50.764;4.332;2023-06-22T15:51:55;19.80;99.90